Time,TemperatureF,DewpointF,PressureIn,WindDirection,WindDirectionDegrees,WindSpeedMPH,WindSpeedGustMPH,Humidity,HourlyPrecipIn,Conditions,Clouds,dailyrainin,SolarRadiationWatts/m^2,SoftwareType,DateUTC
2013-02-05 00:11:00,23.0,22.0,-100.00,NE,37,0.0,2.0,95,0.00,,,0.00,0.000000,,2013-02-05 07:11:00,
2013-02-05 00:22:00,23.0,22.0,-100.00,NE,37,0.0,2.0,95,0.00,,,0.00,0.000000,,2013-02-05 07:22:00,
2013-02-05 00:31:00,23.0,22.0,-100.00,NE,37,0.0,2.0,95,0.00,,,0.00,0.000000,,2013-02-05 07:31:00,
2013-02-05 00:41:00,23.0,22.0,-100.00,NE,37,0.0,2.0,95,0.00,,,0.00,0.000000,,2013-02-05 07:41:00,
2013-02-05 01:11:00,23.0,22.0,-100.00,North,9,1.0,2.0,95,0.00,,,0.00,0.000000,,2013-02-05 08:11:00,
2013-02-05 01:21:00,23.0,22.0,-100.00,North,9,1.0,2.0,95,0.00,,,0.00,0.000000,,2013-02-05 08:21:00,
2013-02-05 01:31:00,23.0,22.0,-100.00,North,9,1.0,2.0,95,0.00,,,0.00,0.000000,,2013-02-05 08:31:00,
2013-02-05 01:41:00,23.0,22.0,-100.00,North,9,1.0,2.0,95,0.00,,,0.00,0.000000,,2013-02-05 08:41:00,
2013-02-05 02:11:00,23.0,22.0,-100.00,North,7,0.0,2.0,95,0.00,,,0.00,0.000000,,2013-02-05 09:11:00,
2013-02-05 02:21:00,23.0,22.0,-100.00,North,7,0.0,2.0,95,0.00,,,0.00,0.000000,,2013-02-05 09:21:00,
2013-02-05 02:31:00,23.0,22.0,-100.00,North,7,0.0,2.0,95,0.00,,,0.00,0.000000,,2013-02-05 09:31:00,
2013-02-05 02:42:00,23.0,22.0,-100.00,North,7,0.0,2.0,95,0.00,,,0.00,0.000000,,2013-02-05 09:42:00,
2013-02-05 03:11:00,23.0,22.0,-100.00,East,86,1.0,2.0,95,0.00,,,0.00,0.000000,,2013-02-05 10:11:00,
2013-02-05 03:21:00,23.0,22.0,-100.00,East,86,1.0,2.0,95,0.00,,,0.00,0.000000,,2013-02-05 10:21:00,
2013-02-05 03:31:00,23.0,22.0,-100.00,East,86,1.0,2.0,95,0.00,,,0.00,0.000000,,2013-02-05 10:31:00,
2013-02-05 03:42:00,23.0,22.0,-100.00,East,86,1.0,2.0,95,0.00,,,0.00,0.000000,,2013-02-05 10:42:00,
2013-02-05 04:11:00,23.0,22.0,-100.00,ENE,77,0.0,3.0,95,0.00,,,0.00,0.000000,,2013-02-05 11:11:00,
2013-02-05 04:22:00,23.0,22.0,-100.00,ENE,77,0.0,3.0,95,0.00,,,0.00,0.000000,,2013-02-05 11:22:00,
2013-02-05 04:32:00,23.0,22.0,-100.00,ENE,77,0.0,3.0,95,0.00,,,0.00,0.000000,,2013-02-05 11:32:00,
2013-02-05 04:41:00,23.0,22.0,-100.00,ENE,77,0.0,3.0,95,0.00,,,0.00,0.000000,,2013-02-05 11:41:00,
2013-02-05 05:12:00,24.0,23.0,-100.00,NNW,348,1.0,2.0,96,0.00,,,0.00,0.000000,,2013-02-05 12:12:00,
2013-02-05 05:21:00,24.0,23.0,-100.00,NNW,348,1.0,2.0,96,0.00,,,0.00,0.000000,,2013-02-05 12:21:00,
2013-02-05 05:32:00,24.0,23.0,-100.00,NNW,348,1.0,2.0,96,0.00,,,0.00,0.000000,,2013-02-05 12:32:00,
2013-02-05 05:41:00,24.0,23.0,-100.00,NNW,348,1.0,2.0,96,0.00,,,0.00,0.000000,,2013-02-05 12:41:00,
2013-02-05 06:12:00,24.0,23.0,-100.00,NE,46,0.0,2.0,96,0.00,,,-99.99,0.000000,,2013-02-05 13:12:00,
2013-02-05 06:21:00,24.0,23.0,-100.00,NE,46,0.0,2.0,96,0.00,,,-99.99,0.000000,,2013-02-05 13:21:00,
2013-02-05 06:31:00,24.0,23.0,-100.00,NE,46,0.0,2.0,96,0.00,,,-99.99,0.000000,,2013-02-05 13:31:00,
2013-02-05 06:41:00,24.0,23.0,-100.00,NE,46,0.0,2.0,96,0.00,,,-99.99,0.000000,,2013-02-05 13:41:00,
2013-02-05 07:12:00,24.0,23.0,-100.00,NNE,18,0.0,2.0,96,0.00,,,0.00,0.000000,,2013-02-05 14:12:00,
2013-02-05 07:21:00,24.0,23.0,-100.00,NNE,18,0.0,2.0,96,0.00,,,0.00,0.000000,,2013-02-05 14:21:00,
2013-02-05 07:31:00,24.0,23.0,-100.00,NNE,18,0.0,2.0,96,0.00,,,0.00,0.000000,,2013-02-05 14:31:00,
2013-02-05 07:41:00,24.0,23.0,-100.00,NNE,18,0.0,2.0,96,0.00,,,0.00,0.000000,,2013-02-05 14:41:00,
2013-02-05 08:11:00,25.0,24.0,-100.00,North,351,1.0,3.0,96,0.00,,,0.00,0.000000,,2013-02-05 15:11:00,
2013-02-05 08:21:00,25.0,24.0,-100.00,North,351,1.0,3.0,96,0.00,,,0.00,0.000000,,2013-02-05 15:21:00,
2013-02-05 08:32:00,25.0,24.0,-100.00,North,351,1.0,3.0,96,0.00,,,0.00,0.000000,,2013-02-05 15:32:00,
2013-02-05 08:41:00,25.0,24.0,-100.00,North,351,1.0,3.0,96,0.00,,,0.00,0.000000,,2013-02-05 15:41:00,
2013-02-05 09:11:00,26.0,25.0,-100.00,North,6,1.0,3.0,95,0.00,,,0.00,8.000000,,2013-02-05 16:11:00,
2013-02-05 09:22:00,26.0,25.0,-100.00,North,6,1.0,3.0,95,0.00,,,0.00,8.000000,,2013-02-05 16:22:00,
2013-02-05 09:32:00,26.0,25.0,-100.00,North,6,1.0,3.0,95,0.00,,,0.00,8.000000,,2013-02-05 16:32:00,
2013-02-05 09:41:00,26.0,25.0,-100.00,North,6,1.0,3.0,95,0.00,,,0.00,8.000000,,2013-02-05 16:41:00,
2013-02-05 10:11:00,30.0,27.0,-100.00,NNE,12,1.0,3.0,90,0.00,,,-99.99,28.000000,,2013-02-05 17:11:00,
2013-02-05 10:21:00,30.0,27.0,-100.00,NNE,12,1.0,3.0,90,0.00,,,-99.99,28.000000,,2013-02-05 17:21:00,
2013-02-05 10:32:00,30.0,27.0,-100.00,NNE,12,1.0,3.0,90,0.00,,,-99.99,28.000000,,2013-02-05 17:32:00,
2013-02-05 10:41:00,30.0,27.0,-100.00,NNE,12,1.0,3.0,90,0.00,,,-99.99,28.000000,,2013-02-05 17:41:00,
2013-02-05 11:11:00,35.0,30.0,-100.00,NNE,19,1.0,3.0,81,0.01,,,0.01,76.000000,,2013-02-05 18:11:00,
2013-02-05 11:21:00,35.0,30.0,-100.00,NNE,19,1.0,3.0,81,0.01,,,0.01,76.000000,,2013-02-05 18:21:00,
2013-02-05 11:32:00,35.0,30.0,-100.00,NNE,19,1.0,3.0,81,0.01,,,0.01,76.000000,,2013-02-05 18:32:00,
2013-02-05 11:42:00,35.0,30.0,-100.00,NNE,19,1.0,3.0,81,0.01,,,0.01,76.000000,,2013-02-05 18:42:00,
2013-02-05 12:11:00,40.0,28.0,-100.00,NW,307,0.0,3.0,62,0.05,,,0.06,297.000000,,2013-02-05 19:11:00,
2013-02-05 12:21:00,40.0,28.0,-100.00,NW,307,0.0,3.0,62,0.05,,,0.06,297.000000,,2013-02-05 19:21:00,
2013-02-05 12:31:00,40.0,28.0,-100.00,NW,307,0.0,3.0,62,0.05,,,0.06,297.000000,,2013-02-05 19:31:00,
2013-02-05 12:42:00,40.0,28.0,-100.00,NW,307,0.0,3.0,62,0.05,,,0.06,297.000000,,2013-02-05 19:42:00,
2013-02-05 13:11:00,40.0,29.0,-100.00,WNW,287,0.0,3.0,65,0.03,,,0.09,273.000000,,2013-02-05 20:11:00,
2013-02-05 13:21:00,40.0,29.0,-100.00,WNW,287,0.0,3.0,65,0.03,,,0.09,273.000000,,2013-02-05 20:21:00,
2013-02-05 13:32:00,40.0,29.0,-100.00,WNW,287,0.0,3.0,65,0.03,,,0.09,273.000000,,2013-02-05 20:32:00,
2013-02-05 13:41:00,40.0,29.0,-100.00,WNW,287,0.0,3.0,65,0.03,,,0.09,273.000000,,2013-02-05 20:41:00,
2013-02-05 14:11:00,44.0,32.0,-100.00,SW,232,2.0,4.0,63,0.04,,,0.13,386.000000,,2013-02-05 21:11:00,
2013-02-05 14:21:00,44.0,32.0,-100.00,SW,232,2.0,4.0,63,0.04,,,0.13,386.000000,,2013-02-05 21:21:00,
2013-02-05 14:32:00,44.0,32.0,-100.00,SW,232,2.0,4.0,63,0.04,,,0.13,386.000000,,2013-02-05 21:32:00,
2013-02-05 15:11:00,39.0,30.0,-100.00,WSW,251,2.0,6.0,70,0.04,,,0.17,289.000000,,2013-02-05 22:11:00,
2013-02-05 15:21:00,39.0,30.0,-100.00,WSW,251,2.0,6.0,70,0.04,,,0.17,289.000000,,2013-02-05 22:21:00,
2013-02-05 15:31:00,39.0,30.0,-100.00,WSW,251,2.0,6.0,70,0.04,,,0.17,289.000000,,2013-02-05 22:31:00,
2013-02-05 15:41:00,39.0,30.0,-100.00,WSW,251,2.0,6.0,70,0.04,,,0.17,289.000000,,2013-02-05 22:41:00,
2013-02-05 16:11:00,37.0,28.0,-100.00,West,272,2.0,5.0,71,0.01,,,0.18,215.000000,,2013-02-05 23:11:00,
2013-02-05 16:21:00,37.0,28.0,-100.00,West,272,2.0,5.0,71,0.01,,,0.18,215.000000,,2013-02-05 23:21:00,
2013-02-05 16:32:00,37.0,28.0,-100.00,West,272,2.0,5.0,71,0.01,,,0.18,215.000000,,2013-02-05 23:32:00,
2013-02-05 16:41:00,37.0,28.0,-100.00,West,272,2.0,5.0,71,0.01,,,0.18,215.000000,,2013-02-05 23:41:00,
2013-02-05 17:11:00,34.0,30.0,-100.00,WNW,302,0.0,3.0,86,0.01,,,0.19,93.000000,,2013-02-06 00:11:00,
2013-02-05 17:21:00,34.0,30.0,-100.00,WNW,302,0.0,3.0,86,0.01,,,0.19,93.000000,,2013-02-06 00:21:00,
2013-02-05 17:32:00,34.0,30.0,-100.00,WNW,302,0.0,3.0,86,0.01,,,0.19,93.000000,,2013-02-06 00:32:00,
2013-02-05 17:42:00,34.0,30.0,-100.00,WNW,302,0.0,3.0,86,0.01,,,0.19,93.000000,,2013-02-06 00:42:00,
2013-02-05 18:11:00,30.0,29.0,-100.00,NE,49,0.0,2.0,96,0.00,,,0.19,18.000000,,2013-02-06 01:11:00,
2013-02-05 18:21:00,30.0,29.0,-100.00,NE,49,0.0,2.0,96,0.00,,,0.19,18.000000,,2013-02-06 01:21:00,
2013-02-05 18:32:00,30.0,29.0,-100.00,NE,49,0.0,2.0,96,0.00,,,0.19,18.000000,,2013-02-06 01:32:00,
2013-02-05 18:41:00,30.0,29.0,-100.00,NE,49,0.0,2.0,96,0.00,,,0.19,18.000000,,2013-02-06 01:41:00,
2013-02-05 19:11:00,29.0,29.0,-100.00,NE,48,0.0,0.0,98,0.00,,,0.19,0.000000,,2013-02-06 02:11:00,
2013-02-05 19:21:00,29.0,29.0,-100.00,NE,48,0.0,0.0,98,0.00,,,0.19,0.000000,,2013-02-06 02:21:00,
2013-02-05 19:32:00,29.0,29.0,-100.00,NE,48,0.0,0.0,98,0.00,,,0.19,0.000000,,2013-02-06 02:32:00,
2013-02-05 19:41:00,29.0,29.0,-100.00,NE,48,0.0,0.0,98,0.00,,,0.19,0.000000,,2013-02-06 02:41:00,
2013-02-05 20:12:00,29.0,29.0,-100.00,NNW,348,0.0,2.0,99,0.00,,,0.19,0.000000,,2013-02-06 03:12:00,
2013-02-05 20:21:00,29.0,29.0,-100.00,NNW,348,0.0,2.0,99,0.00,,,0.19,0.000000,,2013-02-06 03:21:00,
2013-02-05 20:32:00,29.0,29.0,-100.00,NNW,348,0.0,2.0,99,0.00,,,0.19,0.000000,,2013-02-06 03:32:00,
2013-02-05 20:42:00,29.0,29.0,-100.00,NNW,348,0.0,2.0,99,0.00,,,0.19,0.000000,,2013-02-06 03:42:00,
2013-02-05 21:11:00,28.0,28.0,-100.00,NNW,327,0.0,2.0,98,0.00,,,0.19,0.000000,,2013-02-06 04:11:00,
2013-02-05 21:21:00,28.0,28.0,-100.00,NNW,327,0.0,2.0,98,0.00,,,0.19,0.000000,,2013-02-06 04:21:00,
2013-02-05 21:31:00,28.0,28.0,-100.00,NNW,327,0.0,2.0,98,0.00,,,0.19,0.000000,,2013-02-06 04:31:00,
2013-02-05 21:41:00,28.0,28.0,-100.00,NNW,327,0.0,2.0,98,0.00,,,0.19,0.000000,,2013-02-06 04:41:00,
2013-02-05 22:12:00,26.0,26.0,-100.00,NNE,13,0.0,2.0,98,0.00,,,0.19,0.000000,,2013-02-06 05:12:00,
2013-02-05 22:22:00,26.0,26.0,-100.00,NNE,13,0.0,2.0,98,0.00,,,0.19,0.000000,,2013-02-06 05:22:00,
2013-02-05 22:31:00,26.0,26.0,-100.00,NNE,13,0.0,2.0,98,0.00,,,0.19,0.000000,,2013-02-06 05:31:00,
2013-02-05 22:41:00,26.0,26.0,-100.00,NNE,13,0.0,2.0,98,0.00,,,0.19,0.000000,,2013-02-06 05:41:00,
2013-02-05 23:11:00,24.0,24.0,-100.00,North,351,0.0,2.0,98,0.00,,,0.19,0.000000,,2013-02-06 06:11:00,
2013-02-05 23:21:00,24.0,24.0,-100.00,North,351,0.0,2.0,98,0.00,,,0.19,0.000000,,2013-02-06 06:21:00,
2013-02-05 23:31:00,24.0,24.0,-100.00,North,351,0.0,2.0,98,0.00,,,0.19,0.000000,,2013-02-06 06:31:00,
2013-02-05 23:41:00,24.0,24.0,-100.00,North,351,0.0,2.0,98,0.00,,,0.19,0.000000,,2013-02-06 06:41:00,